createdAt,value
2019-03-31T00:01:07.653Z,117.97
2019-03-31T00:03:52.701Z,119.37
2019-03-31T00:06:49.409Z,114.62
2019-03-31T00:09:45.654Z,115.62
2019-03-31T00:12:41.955Z,120.42
2019-03-31T00:15:38.540Z,119.55
2019-03-31T00:18:34.883Z,109.50
2019-03-31T00:21:31.362Z,100.55
2019-03-31T00:24:28.127Z,102.87
2019-03-31T00:27:24.341Z,126.18
2019-03-31T00:30:20.629Z,109.17
2019-03-31T00:33:17.214Z,105.25
2019-03-31T00:36:13.807Z,99.30
2019-03-31T00:39:11.531Z,104.53
2019-03-31T00:42:07.928Z,108.60
2019-03-31T00:45:04.758Z,112.35
2019-03-31T00:48:01.841Z,115.15
2019-03-31T00:50:58.141Z,105.20
2019-03-31T00:53:54.674Z,119.85
2019-03-31T00:56:50.970Z,105.72
2019-03-31T00:59:47.411Z,114.57
2019-03-31T01:02:44.434Z,109.55
2019-03-31T01:05:41.736Z,113.45
2019-03-31T01:08:38.967Z,107.32
2019-03-31T01:11:35.661Z,112.05
2019-03-31T01:14:32.640Z,107.37
2019-03-31T01:17:30.262Z,113.80
2019-03-31T01:20:26.855Z,126.00
2019-03-31T01:23:23.197Z,115.32
2019-03-31T01:26:21.269Z,122.62
2019-03-31T01:29:18.468Z,122.98
2019-03-31T01:32:15.379Z,123.22
2019-03-31T01:35:12.192Z,116.97
2019-03-31T01:38:09.957Z,120.77
2019-03-31T01:41:06.495Z,125.07
2019-03-31T01:44:02.876Z,126.53
2019-03-31T01:46:59.994Z,128.02
2019-03-31T01:49:56.596Z,111.50
2019-03-31T01:52:53.915Z,132.20
2019-03-31T01:55:50.851Z,125.58
2019-03-31T01:58:47.381Z,129.78
2019-03-31T02:01:43.941Z,128.70
2019-03-31T02:04:42.383Z,135.95
2019-03-31T02:07:39.167Z,131.75
2019-03-31T02:10:36.202Z,162.37
2019-03-31T02:13:33.247Z,187.77
2019-03-31T02:16:29.997Z,165.20
2019-03-31T02:19:27.145Z,151.50
2019-03-31T02:22:23.830Z,152.65
2019-03-31T02:25:20.228Z,143.45
2019-03-31T02:28:17.055Z,146.32
2019-03-31T02:31:14.826Z,147.95
2019-03-31T02:34:12.589Z,166.82
2019-03-31T02:37:10.580Z,165.10
2019-03-31T02:40:08.317Z,166.40
2019-03-31T02:43:04.655Z,162.97
2019-03-31T02:46:02.645Z,164.80
2019-03-31T02:48:59.316Z,159.60
2019-03-31T02:51:56.197Z,167.28
2019-03-31T02:54:52.588Z,153.90
2019-03-31T02:57:49.770Z,155.50
2019-03-31T03:00:47.197Z,150.65
2019-03-31T03:03:44.446Z,155.27
2019-03-31T03:06:41.935Z,162.70
2019-03-31T03:09:39.823Z,156.50
2019-03-31T03:12:38.414Z,183.42
2019-03-31T03:15:37.235Z,176.78
2019-03-31T03:18:35.231Z,167.05
2019-03-31T03:21:32.296Z,188.57
2019-03-31T03:24:29.063Z,184.97
2019-03-31T03:27:26.104Z,192.85
2019-03-31T03:30:22.925Z,187.12
2019-03-31T03:33:20.286Z,203.45
2019-03-31T03:36:18.073Z,183.78
2019-03-31T03:39:15.190Z,194.97
2019-03-31T03:42:11.636Z,204.10
2019-03-31T03:45:09.295Z,191.57
2019-03-31T03:48:07.482Z,202.82
2019-03-31T03:51:04.543Z,179.97
2019-03-31T03:54:01.049Z,206.13
2019-03-31T03:56:57.609Z,178.23
2019-03-31T03:59:54.405Z,190.53
2019-03-31T04:02:51.431Z,191.43
2019-03-31T04:05:48.906Z,181.87
2019-03-31T04:08:47.139Z,192.50
2019-03-31T04:11:44.532Z,220.65
2019-03-31T04:14:41.425Z,221.90
2019-03-31T04:17:37.909Z,218.63
2019-03-31T04:20:39.102Z,184.67
2019-03-31T04:23:31.732Z,181.37
2019-03-31T04:26:28.429Z,257.32
2019-03-31T04:29:25.053Z,182.07
2019-03-31T04:32:21.728Z,172.40
2019-03-31T04:35:18.745Z,197.85
2019-03-31T04:38:15.494Z,163.15
2019-03-31T04:41:12.635Z,155.48
2019-03-31T04:44:09.521Z,143.82
2019-03-31T04:47:06.054Z,171.77
2019-03-31T04:50:03.011Z,148.90
2019-03-31T04:52:59.647Z,143.90
2019-03-31T04:55:57.610Z,154.10
2019-03-31T04:58:54.512Z,157.65
2019-03-31T05:01:52.275Z,153.85
2019-03-31T05:04:48.880Z,140.97
2019-03-31T05:07:45.739Z,142.15
2019-03-31T05:10:42.737Z,130.87
2019-03-31T05:13:39.792Z,125.07
2019-03-31T05:16:36.681Z,126.40
2019-03-31T05:19:33.753Z,129.32
2019-03-31T05:22:30.000Z,125.38
2019-03-31T05:25:26.875Z,118.85
2019-03-31T05:28:24.538Z,115.88
2019-03-31T05:31:21.105Z,114.25
2019-03-31T05:34:19.294Z,115.00
2019-03-31T05:37:16.672Z,111.62
2019-03-31T05:40:13.743Z,104.38
2019-03-31T05:43:10.655Z,111.17
2019-03-31T05:46:08.892Z,112.00
2019-03-31T05:49:05.524Z,114.22
2019-03-31T05:52:02.230Z,121.67
2019-03-31T05:54:58.818Z,106.70
2019-03-31T05:57:55.576Z,114.65
2019-03-31T06:00:54.163Z,128.78
2019-03-31T06:03:50.220Z,120.85
2019-03-31T06:06:46.277Z,134.57
2019-03-31T06:09:42.525Z,103.60
2019-03-31T06:12:39.062Z,131.47
2019-03-31T06:15:35.683Z,107.05
2019-03-31T06:18:32.190Z,123.97
2019-03-31T06:21:29.268Z,105.55
2019-03-31T06:24:25.471Z,115.37
2019-03-31T06:27:21.560Z,103.65
2019-03-31T06:30:19.385Z,98.30
2019-03-31T06:33:16.816Z,92.02
2019-03-31T06:36:16.628Z,87.45
2019-03-31T06:39:14.309Z,69.80
2019-03-31T06:42:12.313Z,81.20
2019-03-31T06:45:11.128Z,91.47
2019-03-31T06:48:09.689Z,90.20
2019-03-31T06:51:06.507Z,95.42
2019-03-31T06:54:03.673Z,80.80
2019-03-31T06:57:01.668Z,82.78
2019-03-31T07:00:01.207Z,94.50
2019-03-31T07:02:59.733Z,75.20
2019-03-31T07:05:58.504Z,88.00
2019-03-31T07:08:55.527Z,87.55
2019-03-31T07:11:55.596Z,85.60
2019-03-31T07:14:54.611Z,94.35
2019-03-31T07:17:52.694Z,71.30
2019-03-31T07:20:49.933Z,70.20
2019-03-31T07:23:48.974Z,81.65
2019-03-31T07:26:47.129Z,74.90
2019-03-31T07:29:44.064Z,89.13
2019-03-31T07:32:40.898Z,83.37
2019-03-31T07:35:39.229Z,71.17
2019-03-31T07:38:39.293Z,79.60
2019-03-31T07:41:35.740Z,74.12
2019-03-31T07:44:33.233Z,68.50
2019-03-31T07:47:29.985Z,75.92
2019-03-31T07:50:28.915Z,81.53
2019-03-31T07:53:27.389Z,78.47
2019-03-31T07:56:25.241Z,79.92
2019-03-31T07:59:23.024Z,67.30
2019-03-31T08:02:19.785Z,70.20
2019-03-31T08:05:17.161Z,71.53
2019-03-31T08:08:13.776Z,67.03
2019-03-31T08:11:11.316Z,61.23
2019-03-31T08:14:10.611Z,62.88
2019-03-31T08:17:12.065Z,74.47
2019-03-31T08:20:12.692Z,63.78
2019-03-31T08:23:11.587Z,63.98
2019-03-31T08:26:08.181Z,68.28
2019-03-31T08:29:04.620Z,57.00
2019-03-31T08:32:01.683Z,55.38
2019-03-31T08:34:59.218Z,48.55
2019-03-31T08:38:00.223Z,47.80
2019-03-31T08:40:58.253Z,49.88
2019-03-31T08:43:57.649Z,53.45
2019-03-31T08:46:55.512Z,59.63
2019-03-31T08:49:55.698Z,54.13
2019-03-31T08:52:53.053Z,54.58
2019-03-31T08:55:49.498Z,68.37
2019-03-31T08:58:46.240Z,55.23
2019-03-31T09:01:43.296Z,47.90
2019-03-31T09:04:39.869Z,57.48
2019-03-31T09:07:36.358Z,60.05
2019-03-31T09:10:32.856Z,56.25
2019-03-31T09:13:29.752Z,49.08
2019-03-31T09:16:26.782Z,58.10
2019-03-31T09:19:23.477Z,57.05
2019-03-31T09:22:20.455Z,38.13
2019-03-31T09:25:18.600Z,53.17
2019-03-31T09:28:14.828Z,47.13
2019-03-31T09:31:12.880Z,45.03
2019-03-31T09:34:11.182Z,42.15
2019-03-31T09:37:08.952Z,43.08
2019-03-31T09:40:05.738Z,38.58
2019-03-31T09:43:03.247Z,38.92
2019-03-31T09:45:59.757Z,41.85
2019-03-31T09:48:56.787Z,45.67
2019-03-31T09:51:53.965Z,49.20
2019-03-31T09:54:50.699Z,54.70
2019-03-31T09:57:47.331Z,50.12
2019-03-31T10:00:52.537Z,49.63
2019-03-31T10:03:48.996Z,45.17
2019-03-31T10:06:46.066Z,37.00
2019-03-31T10:09:43.055Z,54.18
2019-03-31T10:12:39.224Z,59.15
2019-03-31T10:15:35.749Z,52.83
2019-03-31T10:18:31.896Z,48.95
2019-03-31T10:21:29.195Z,64.75
2019-03-31T10:24:25.754Z,62.40
2019-03-31T10:27:23.429Z,57.80
2019-03-31T10:30:21.221Z,60.73
2019-03-31T10:33:17.873Z,70.85
2019-03-31T10:36:15.467Z,80.12
2019-03-31T10:39:13.734Z,65.75
2019-03-31T10:42:10.797Z,120.13
2019-03-31T10:45:07.745Z,170.47
2019-03-31T10:48:19.280Z,160.72
2019-03-31T10:51:10.402Z,75.00
2019-03-31T10:54:18.907Z,95.53
2019-03-31T10:57:17.090Z,59.80
2019-03-31T11:00:15.794Z,56.83
2019-03-31T11:03:14.627Z,77.17
2019-03-31T11:06:12.389Z,82.95
2019-03-31T11:09:10.523Z,81.05
2019-03-31T11:12:08.946Z,79.97
2019-03-31T11:15:07.950Z,57.00
2019-03-31T11:18:06.135Z,55.73
2019-03-31T11:21:09.302Z,55.15
2019-03-31T11:24:07.269Z,72.08
2019-03-31T11:27:04.632Z,56.68
2019-03-31T11:30:18.068Z,53.17
2019-03-31T11:33:16.662Z,41.05
2019-03-31T11:36:16.321Z,41.85
2019-03-31T11:39:18.927Z,35.95
2019-03-31T11:42:21.353Z,35.85
2019-03-31T11:45:21.915Z,33.53
2019-03-31T11:48:19.179Z,38.05
2019-03-31T11:51:15.940Z,43.55
2019-03-31T11:54:14.249Z,51.60
2019-03-31T11:57:11.243Z,46.90
2019-03-31T12:00:08.350Z,36.73
2019-03-31T12:03:05.086Z,33.45
2019-03-31T12:06:01.825Z,34.13
2019-03-31T12:08:58.441Z,40.98
2019-03-31T12:11:55.223Z,37.20
2019-03-31T12:15:00.409Z,40.52
2019-03-31T12:17:48.695Z,37.35
2019-03-31T12:20:45.224Z,37.17
2019-03-31T12:23:46.152Z,40.73
2019-03-31T12:26:49.288Z,37.23
2019-03-31T12:29:47.482Z,37.83
2019-03-31T12:32:44.037Z,46.25
2019-03-31T12:35:42.621Z,76.33
2019-03-31T12:38:54.081Z,92.55
2019-03-31T12:41:52.258Z,72.03
2019-03-31T12:44:49.801Z,120.80
2019-03-31T12:47:47.060Z,86.20
2019-03-31T12:50:44.073Z,96.67
2019-03-31T12:53:42.457Z,53.45
2019-03-31T12:56:41.754Z,82.30
2019-03-31T12:59:52.843Z,56.08
2019-03-31T13:02:50.653Z,58.95
2019-03-31T13:05:47.434Z,67.40
2019-03-31T13:08:45.032Z,93.78
2019-03-31T13:11:44.829Z,84.07
2019-03-31T13:14:43.812Z,78.33
2019-03-31T13:17:40.734Z,100.67
2019-03-31T13:20:38.702Z,117.50
2019-03-31T13:23:36.376Z,104.27
2019-03-31T13:26:34.286Z,79.50
2019-03-31T13:29:31.015Z,74.58
2019-03-31T13:32:28.223Z,89.15
2019-03-31T13:35:26.169Z,96.35
2019-03-31T13:38:22.580Z,79.22
2019-03-31T13:41:18.997Z,79.03
2019-03-31T13:44:16.124Z,83.30
2019-03-31T13:47:12.691Z,78.75
2019-03-31T13:50:09.893Z,75.90
2019-03-31T13:53:06.989Z,75.52
2019-03-31T13:56:03.322Z,81.05
2019-03-31T13:59:00.518Z,77.05
2019-03-31T14:02:00.060Z,108.42
2019-03-31T14:04:54.737Z,147.70
2019-03-31T14:07:51.893Z,100.95
2019-03-31T14:10:48.404Z,133.87
2019-03-31T14:13:44.806Z,88.58
2019-03-31T14:16:41.952Z,86.90
2019-03-31T14:19:38.572Z,109.10
2019-03-31T14:22:35.027Z,106.47
2019-03-31T14:25:31.638Z,83.55
2019-03-31T14:28:28.223Z,80.72
2019-03-31T14:31:25.394Z,82.85
2019-03-31T14:34:21.939Z,132.47
2019-03-31T14:37:19.329Z,83.55
2019-03-31T14:40:17.731Z,115.22
2019-03-31T14:43:14.469Z,111.85
2019-03-31T14:46:11.135Z,124.78
2019-03-31T14:49:07.986Z,113.03
2019-03-31T14:52:04.438Z,176.47
2019-03-31T14:55:01.241Z,127.80
2019-03-31T14:57:58.061Z,140.28
2019-03-31T15:00:54.406Z,121.47
2019-03-31T15:03:50.973Z,124.87
2019-03-31T15:06:47.395Z,108.00
2019-03-31T15:09:44.125Z,143.20
2019-03-31T15:12:40.771Z,160.70
2019-03-31T15:15:37.156Z,143.75
2019-03-31T15:18:33.936Z,201.18
2019-03-31T15:21:30.949Z,218.02
2019-03-31T15:24:27.331Z,145.17
2019-03-31T15:27:25.437Z,169.70
2019-03-31T15:30:22.495Z,140.50
2019-03-31T15:33:19.499Z,148.70
2019-03-31T15:36:17.909Z,156.75
2019-03-31T15:39:14.930Z,144.68
2019-03-31T15:42:12.022Z,118.17
2019-03-31T15:45:10.182Z,117.80
2019-03-31T15:48:07.093Z,132.90
2019-03-31T15:51:03.636Z,142.03
2019-03-31T15:54:00.089Z,129.00
2019-03-31T15:56:56.699Z,144.47
2019-03-31T16:00:01.505Z,110.12
2019-03-31T16:02:58.084Z,132.82
2019-03-31T16:05:54.993Z,137.52
2019-03-31T16:08:51.910Z,146.72
2019-03-31T16:11:53.843Z,145.92
2019-03-31T16:14:44.062Z,155.90
2019-03-31T16:17:40.059Z,161.80
2019-03-31T16:20:35.237Z,154.40
2019-03-31T16:23:31.071Z,157.10
2019-03-31T16:26:26.607Z,131.57
2019-03-31T16:29:22.013Z,166.88
2019-03-31T16:32:18.310Z,139.15
2019-03-31T16:35:13.649Z,147.62
2019-03-31T16:38:09.438Z,123.92
2019-03-31T16:41:06.204Z,131.37
2019-03-31T16:44:01.682Z,138.85
2019-03-31T16:46:57.880Z,133.52
2019-03-31T16:49:53.456Z,121.80
2019-03-31T16:52:48.818Z,136.37
2019-03-31T16:55:44.144Z,186.30
2019-03-31T16:58:39.721Z,135.72
2019-03-31T17:01:37.052Z,135.55
2019-03-31T17:04:32.627Z,109.80
2019-03-31T17:07:28.206Z,109.22
2019-03-31T17:10:24.264Z,137.80
2019-03-31T17:13:19.973Z,140.70
2019-03-31T17:16:15.716Z,130.47
2019-03-31T17:19:11.720Z,143.30
2019-03-31T17:22:07.304Z,153.80
2019-03-31T17:25:03.083Z,165.77
2019-03-31T17:27:59.261Z,151.53
2019-03-31T17:30:54.503Z,160.00
2019-03-31T17:33:50.210Z,169.17
2019-03-31T17:36:45.867Z,151.97
2019-03-31T17:39:41.655Z,140.97
2019-03-31T17:42:37.536Z,144.60
2019-03-31T17:45:34.738Z,125.30
2019-03-31T17:48:30.165Z,117.87
2019-03-31T17:51:25.592Z,101.50
2019-03-31T17:54:21.081Z,92.92
2019-03-31T17:57:16.677Z,95.97
2019-03-31T18:00:13.774Z,99.15
2019-03-31T18:03:09.394Z,84.67
2019-03-31T18:06:05.303Z,88.00
2019-03-31T18:09:01.150Z,92.45
2019-03-31T18:11:56.900Z,123.45
2019-03-31T18:14:52.591Z,113.42
2019-03-31T18:17:48.812Z,102.55
2019-03-31T18:20:44.123Z,107.40
2019-03-31T18:23:41.269Z,122.00
2019-03-31T18:26:36.976Z,107.00
2019-03-31T18:29:32.778Z,115.12
2019-03-31T18:32:28.424Z,112.50
2019-03-31T18:35:23.450Z,115.35
2019-03-31T18:38:19.123Z,116.12
2019-03-31T18:41:14.659Z,129.78
2019-03-31T18:44:10.119Z,179.45
2019-03-31T18:47:06.734Z,102.15
2019-03-31T18:50:01.794Z,84.30
2019-03-31T18:52:57.703Z,87.20
2019-03-31T18:56:08.635Z,89.47
2019-03-31T18:59:20.275Z,81.22
2019-03-31T19:02:31.988Z,75.62
2019-03-31T19:05:47.991Z,73.25
2019-03-31T19:08:58.148Z,89.32
2019-03-31T19:12:11.000Z,75.78
2019-03-31T19:15:22.663Z,72.20
2019-03-31T19:18:35.774Z,99.10
2019-03-31T19:21:42.299Z,82.27
2019-03-31T19:24:46.178Z,75.75
2019-03-31T19:27:53.457Z,68.22
2019-03-31T19:31:06.771Z,86.37
2019-03-31T19:34:23.040Z,90.57
2019-03-31T19:37:29.483Z,79.12
2019-03-31T19:40:41.660Z,66.85
2019-03-31T19:43:46.565Z,77.50
2019-03-31T19:46:59.144Z,68.90
2019-03-31T19:50:06.042Z,76.20
2019-03-31T19:53:19.208Z,70.55
2019-03-31T19:56:31.841Z,81.28
2019-03-31T19:59:47.721Z,82.40
2019-03-31T20:02:50.466Z,78.10
2019-03-31T20:06:06.013Z,66.15
2019-03-31T20:09:18.090Z,71.87
2019-03-31T20:12:33.550Z,70.05
2019-03-31T20:15:46.497Z,67.55
2019-03-31T20:19:11.114Z,67.15
2019-03-31T20:22:20.776Z,85.17
2019-03-31T20:25:39.577Z,75.95
2019-03-31T20:28:40.923Z,75.70
2019-03-31T20:31:56.365Z,71.37
2019-03-31T20:35:05.464Z,69.12
2019-03-31T20:38:18.606Z,76.92
2019-03-31T20:41:33.674Z,71.95
2019-03-31T20:44:29.659Z,77.62
2019-03-31T20:47:25.087Z,79.62
2019-03-31T20:50:20.324Z,73.83
2019-03-31T20:53:15.663Z,79.10
2019-03-31T20:56:10.703Z,76.97
2019-03-31T20:59:06.074Z,77.03
2019-03-31T21:02:01.432Z,77.22
2019-03-31T21:04:57.185Z,78.07
2019-03-31T21:07:52.671Z,81.92
2019-03-31T21:10:48.277Z,68.30
2019-03-31T21:13:43.951Z,72.20
2019-03-31T21:16:39.536Z,82.25
2019-03-31T21:19:34.682Z,74.70
2019-03-31T21:22:30.098Z,71.37
2019-03-31T21:25:25.280Z,59.42
2019-03-31T21:28:20.446Z,67.97
2019-03-31T21:31:15.703Z,61.95
2019-03-31T21:34:11.550Z,75.40
2019-03-31T21:37:06.730Z,75.15
2019-03-31T21:40:01.830Z,109.10
2019-03-31T21:42:56.964Z,65.00
2019-03-31T21:45:53.093Z,64.17
2019-03-31T21:48:48.448Z,60.70
2019-03-31T21:51:44.005Z,61.45
2019-03-31T21:54:39.484Z,76.60
2019-03-31T21:57:35.370Z,62.78
2019-03-31T22:00:51.895Z,68.83
2019-03-31T22:03:47.568Z,65.42
2019-03-31T22:06:43.224Z,74.15
2019-03-31T22:09:38.799Z,73.90
2019-03-31T22:12:33.947Z,73.65
2019-03-31T22:15:29.532Z,66.45
2019-03-31T22:18:25.177Z,86.50
2019-03-31T22:21:21.089Z,66.05
2019-03-31T22:24:15.935Z,66.42
2019-03-31T22:27:11.679Z,75.08
2019-03-31T22:30:07.099Z,75.90
2019-03-31T22:33:02.739Z,68.40
2019-03-31T22:36:24.339Z,60.45
2019-03-31T22:39:19.765Z,70.80
2019-03-31T22:42:15.461Z,76.87
2019-03-31T22:45:11.113Z,77.05
2019-03-31T22:48:06.826Z,79.20
2019-03-31T22:51:02.599Z,73.12
2019-03-31T22:53:58.170Z,80.28
2019-03-31T22:56:53.446Z,71.50
2019-03-31T22:59:49.470Z,66.20
2019-03-31T23:02:44.875Z,74.95
2019-03-31T23:05:40.252Z,105.63
2019-03-31T23:08:36.587Z,68.57
2019-03-31T23:11:31.966Z,70.30
2019-03-31T23:14:27.319Z,96.50
2019-03-31T23:17:22.604Z,85.45
2019-03-31T23:20:18.225Z,71.47
2019-03-31T23:23:14.138Z,77.03
2019-03-31T23:26:09.743Z,74.82
2019-03-31T23:29:05.076Z,76.05
2019-03-31T23:32:01.067Z,72.60
2019-03-31T23:34:56.490Z,74.40
2019-03-31T23:37:52.202Z,72.90
2019-03-31T23:40:47.589Z,63.55
2019-03-31T23:43:42.824Z,75.00
2019-03-31T23:46:38.330Z,83.03
2019-03-31T23:49:34.331Z,77.20
2019-03-31T23:52:29.971Z,70.17
2019-03-31T23:55:25.615Z,81.75
2019-03-31T23:58:20.899Z,90.80
